Time;durP1;ratioP1;P1;durP2;ratioP2;P2;SDS_P1;SDS_P2;PMS_P1;PMS_P2;Temp;Humidity;BMP_temperature;BMP_pressure;BME280_temperature;BME280_humidity;BME280_pressure;Samples;Min_cycle;Max_cycle;Signal;HPM_P1;HPM_P2
2021/05/25 00:01:48;;;;;;;;;;;20.80;54.90;;;;;;5047013;28;19928;-68
2021/05/25 00:04:14;;;;;;;;;;;20.80;54.90;;;;;;5046381;28;19978;-69
2021/05/25 00:06:40;;;;;;;;;;;20.80;54.90;;;;;;5045475;28;19933;-69
2021/05/25 00:09:06;;;;;;;;;;;20.80;55.00;;;;;;5046122;28;19933;-69
2021/05/25 00:11:32;;;;;;;;;;;20.80;55.00;;;;;;5041829;28;19928;-69
2021/05/25 00:13:59;;;;;;;;;;;20.80;55.10;;;;;;5046993;28;19951;-70
2021/05/25 00:16:25;;;;;;;;;;;20.70;54.80;;;;;;5047682;28;19939;-68
2021/05/25 00:18:52;;;;;;;;;;;20.70;54.80;;;;;;5050885;28;19932;-68
2021/05/25 00:21:18;;;;;;;;;;;20.70;54.80;;;;;;5049113;28;19929;-69
2021/05/25 00:23:44;;;;;;;;;;;20.70;55.50;;;;;;5040046;28;20399;-69
2021/05/25 00:26:10;;;;;;;;;;;20.70;54.90;;;;;;5045387;28;19928;-71
2021/05/25 00:28:36;;;;;;;;;;;20.70;54.80;;;;;;5044343;28;19929;-70
2021/05/25 00:31:02;;;;;;;;;;;20.70;54.80;;;;;;5045659;28;19928;-68
2021/05/25 00:33:28;;;;;;;;;;;20.80;54.90;;;;;;5052218;28;20442;-69
2021/05/25 00:35:55;;;;;;;;;;;20.80;54.70;;;;;;5051275;28;19978;-69
2021/05/25 00:38:21;;;;;;;;;;;20.80;54.60;;;;;;5052923;28;19935;-68
2021/05/25 00:40:47;;;;;;;;;;;20.80;54.60;;;;;;5049393;28;19928;-67
2021/05/25 00:43:13;;;;;;;;;;;20.80;54.40;;;;;;5047025;28;19997;-69
2021/05/25 00:45:40;;;;;;;;;;;20.90;54.50;;;;;;5047931;28;19932;-68
2021/05/25 00:48:06;;;;;;;;;;;20.80;54.40;;;;;;5052639;28;19929;-68
2021/05/25 00:50:32;;;;;;;;;;;20.80;54.60;;;;;;5051527;28;20445;-69
2021/05/25 00:53:00;;;;;;;;;;;20.80;54.60;;;;;;5043957;28;19928;-69
2021/05/25 00:55:26;;;;;;;;;;;20.80;54.80;;;;;;5050524;28;20012;-69
2021/05/25 00:57:52;;;;;;;;;;;20.80;54.70;;;;;;5054465;28;19928;-68
2021/05/25 01:00:20;;;;;;;;;;;20.80;54.70;;;;;;5045180;28;19928;-69
2021/05/25 01:02:46;;;;;;;;;;;20.70;54.80;;;;;;5049388;28;19928;-68
2021/05/25 01:05:13;;;;;;;;;;;20.70;54.80;;;;;;5049910;28;19951;-69
2021/05/25 01:07:39;;;;;;;;;;;20.70;54.80;;;;;;5053550;28;19932;-70
2021/05/25 01:10:07;;;;;;;;;;;20.70;54.80;;;;;;5052687;28;19929;-69
2021/05/25 01:12:35;;;;;;;;;;;20.70;54.80;;;;;;5050885;28;20656;-68
2021/05/25 01:15:04;;;;;;;;;;;20.70;54.70;;;;;;5048999;28;19932;-68
2021/05/25 01:17:31;;;;;;;;;;;20.80;54.70;;;;;;5028888;28;20015;-70
2021/05/25 01:19:58;;;;;;;;;;;20.80;54.70;;;;;;5047019;28;19928;-69
2021/05/25 01:22:25;;;;;;;;;;;20.80;54.70;;;;;;5051856;28;20856;-68
2021/05/25 01:24:51;;;;;;;;;;;20.80;54.60;;;;;;5051773;28;20439;-70
2021/05/25 01:27:17;;;;;;;;;;;20.80;54.70;;;;;;5052572;28;19928;-69
2021/05/25 01:29:43;;;;;;;;;;;20.80;54.60;;;;;;5048485;28;20071;-68
2021/05/25 01:32:09;;;;;;;;;;;20.70;54.60;;;;;;5048571;28;20367;-69
2021/05/25 01:34:35;;;;;;;;;;;20.80;54.70;;;;;;5051772;28;19932;-69
2021/05/25 01:37:01;;;;;;;;;;;20.80;54.70;;;;;;5050906;28;20950;-69
2021/05/25 01:39:28;;;;;;;;;;;20.80;54.70;;;;;;5051790;28;20016;-68
2021/05/25 01:41:54;;;;;;;;;;;20.80;54.60;;;;;;5048518;28;19934;-70
2021/05/25 01:44:20;;;;;;;;;;;20.80;54.60;;;;;;5047157;28;20011;-70
2021/05/25 01:46:46;;;;;;;;;;;20.80;54.50;;;;;;5030841;28;19941;-67
2021/05/25 01:49:13;;;;;;;;;;;20.80;54.50;;;;;;5021125;28;19925;-68
2021/05/25 01:51:44;;;;;;;;;;;20.80;54.70;;;;;;5043648;28;19944;-68
2021/05/25 01:54:10;;;;;;;;;;;20.80;54.80;;;;;;5016975;28;19940;-69
2021/05/25 01:56:36;;;;;;;;;;;20.80;54.70;;;;;;5048126;28;19935;-69
2021/05/25 01:59:02;;;;;;;;;;;20.80;54.80;;;;;;5049310;28;19982;-68
2021/05/25 02:01:29;;;;;;;;;;;20.80;54.70;;;;;;5050675;28;19932;-69
2021/05/25 02:03:55;;;;;;;;;;;20.70;54.60;;;;;;5050493;28;19935;-69
2021/05/25 02:06:21;;;;;;;;;;;20.70;54.60;;;;;;5049028;28;19933;-68
2021/05/25 02:08:47;;;;;;;;;;;20.70;54.70;;;;;;5048371;28;19933;-67
2021/05/25 02:11:13;;;;;;;;;;;20.70;54.80;;;;;;5035067;28;20278;-68
2021/05/25 02:13:40;;;;;;;;;;;20.70;54.70;;;;;;5020277;28;19939;-69
2021/05/25 02:16:06;;;;;;;;;;;20.70;54.70;;;;;;5039936;28;19968;-68
2021/05/25 02:18:33;;;;;;;;;;;20.70;54.80;;;;;;5048799;28;20567;-68
2021/05/25 02:20:59;;;;;;;;;;;20.70;54.60;;;;;;5047640;28;19936;-70
2021/05/25 02:23:25;;;;;;;;;;;20.70;54.60;;;;;;5049664;28;19928;-68
2021/05/25 02:25:51;;;;;;;;;;;20.70;54.60;;;;;;5047684;28;19935;-68
2021/05/25 02:28:18;;;;;;;;;;;20.70;54.70;;;;;;5046851;28;19951;-69
2021/05/25 02:30:45;;;;;;;;;;;20.70;54.70;;;;;;5048860;28;20498;-69
2021/05/25 02:33:11;;;;;;;;;;;20.70;54.70;;;;;;5046679;28;19924;-68
2021/05/25 02:35:38;;;;;;;;;;;20.70;54.60;;;;;;5034671;28;19990;-68
2021/05/25 02:38:04;;;;;;;;;;;20.70;54.60;;;;;;5049622;28;20878;-69
2021/05/25 02:40:31;;;;;;;;;;;20.70;54.60;;;;;;5049190;28;19935;-68
2021/05/25 02:42:57;;;;;;;;;;;20.70;54.60;;;;;;5021186;28;19937;-68
2021/05/25 02:45:23;;;;;;;;;;;20.70;54.60;;;;;;5048240;28;19929;-69
2021/05/25 02:47:50;;;;;;;;;;;20.70;54.60;;;;;;5041184;28;19932;-69
2021/05/25 02:50:16;;;;;;;;;;;20.70;54.60;;;;;;5046688;28;19936;-69
2021/05/25 02:52:42;;;;;;;;;;;20.70;54.60;;;;;;5046156;28;19928;-68
2021/05/25 02:55:09;;;;;;;;;;;20.70;54.70;;;;;;5039817;28;19929;-69
2021/05/25 02:57:35;;;;;;;;;;;20.70;54.60;;;;;;5045554;28;19929;-68
2021/05/25 03:00:01;;;;;;;;;;;20.70;54.60;;;;;;5042196;28;19935;-69
2021/05/25 03:02:27;;;;;;;;;;;20.70;54.70;;;;;;5006989;28;19929;-68
2021/05/25 03:04:53;;;;;;;;;;;20.70;54.70;;;;;;5047709;28;19982;-68
2021/05/25 03:07:19;;;;;;;;;;;20.70;54.60;;;;;;5046264;28;19979;-69
2021/05/25 03:09:46;;;;;;;;;;;20.70;54.60;;;;;;5046229;28;19929;-69
2021/05/25 03:12:12;;;;;;;;;;;20.70;54.50;;;;;;5041216;28;19971;-70
2021/05/25 03:14:38;;;;;;;;;;;20.70;54.40;;;;;;5048744;28;19974;-70
2021/05/25 03:17:04;;;;;;;;;;;20.80;54.30;;;;;;5040991;28;19929;-70
2021/05/25 03:19:30;;;;;;;;;;;20.80;54.10;;;;;;5046835;28;20583;-68
2021/05/25 03:21:57;;;;;;;;;;;20.90;54.00;;;;;;5047512;28;20012;-69
2021/05/25 03:24:23;;;;;;;;;;;20.90;53.90;;;;;;5047054;28;19932;-69
2021/05/25 03:26:49;;;;;;;;;;;20.90;53.80;;;;;;5034901;28;19928;-70
2021/05/25 03:29:15;;;;;;;;;;;21.00;53.80;;;;;;5039420;28;19947;-68
2021/05/25 03:31:41;;;;;;;;;;;21.00;53.70;;;;;;5047008;28;19925;-69
2021/05/25 03:34:07;;;;;;;;;;;21.00;53.80;;;;;;5045859;28;20299;-69
2021/05/25 03:36:33;;;;;;;;;;;21.00;53.70;;;;;;5039767;28;19935;-69
2021/05/25 03:39:00;;;;;;;;;;;21.00;53.60;;;;;;5028602;28;20069;-68
2021/05/25 03:41:26;;;;;;;;;;;21.00;54.30;;;;;;5040927;28;19932;-69
2021/05/25 03:43:52;;;;;;;;;;;21.00;53.50;;;;;;5044534;28;19928;-69
2021/05/25 03:46:18;;;;;;;;;;;21.00;53.50;;;;;;5045364;28;19932;-70
2021/05/25 03:48:44;;;;;;;;;;;21.00;53.40;;;;;;5046402;28;19928;-70
2021/05/25 03:51:10;;;;;;;;;;;21.00;53.40;;;;;;5044547;28;20162;-69
2021/05/25 03:53:36;;;;;;;;;;;21.00;53.40;;;;;;5047560;28;20033;-68
2021/05/25 03:56:17;;;;;;;;;;;21.00;53.40;;;;;;5047126;28;20966;-68
2021/05/25 03:58:49;;;;;;;;;;;21.10;53.40;;;;;;5044012;28;19928;-68
2021/05/25 04:01:18;;;;;;;;;;;21.10;53.40;;;;;;5023169;28;19932;-69
2021/05/25 04:03:44;;;;;;;;;;;21.10;53.40;;;;;;5028047;28;19928;-69
2021/05/25 04:06:10;;;;;;;;;;;21.10;53.30;;;;;;5041632;28;20392;-68
2021/05/25 04:08:37;;;;;;;;;;;21.10;53.30;;;;;;5045818;28;19979;-66
2021/05/25 04:11:03;;;;;;;;;;;21.10;53.20;;;;;;5042697;28;19928;-68
2021/05/25 04:13:29;;;;;;;;;;;21.10;53.30;;;;;;5010881;28;19933;-68
2021/05/25 04:15:55;;;;;;;;;;;21.10;53.30;;;;;;5045968;28;19928;-67
2021/05/25 04:18:21;;;;;;;;;;;21.00;53.30;;;;;;5047578;28;19929;-69
2021/05/25 04:20:47;;;;;;;;;;;21.00;53.30;;;;;;5043896;28;19932;-68
2021/05/25 04:23:13;;;;;;;;;;;21.00;53.20;;;;;;5046280;28;19929;-68
2021/05/25 04:25:39;;;;;;;;;;;21.00;53.20;;;;;;5046447;28;19935;-69
2021/05/25 04:28:06;;;;;;;;;;;21.00;53.20;;;;;;5044331;28;19929;-69
2021/05/25 04:30:32;;;;;;;;;;;21.00;53.20;;;;;;5026988;28;20359;-68
2021/05/25 04:32:58;;;;;;;;;;;21.00;53.10;;;;;;5039682;28;19929;-71
2021/05/25 04:35:24;;;;;;;;;;;21.00;54.00;;;;;;5044688;28;20295;-70
2021/05/25 04:37:51;;;;;;;;;;;21.00;53.00;;;;;;5043679;28;19971;-69
2021/05/25 04:40:18;;;;;;;;;;;21.00;53.10;;;;;;5047677;28;19931;-68
2021/05/25 04:42:44;;;;;;;;;;;21.00;53.00;;;;;;5045564;28;19980;-69
2021/05/25 04:45:11;;;;;;;;;;;21.10;52.90;;;;;;5042795;28;19932;-69
2021/05/25 04:47:37;;;;;;;;;;;21.10;52.80;;;;;;5042077;28;20380;-68
2021/05/25 04:50:04;;;;;;;;;;;21.10;52.90;;;;;;5040901;28;19932;-68
2021/05/25 04:52:31;;;;;;;;;;;21.10;52.90;;;;;;5046827;28;20349;-68
2021/05/25 04:54:57;;;;;;;;;;;21.00;52.80;;;;;;5043253;28;20131;-68
2021/05/25 04:57:23;;;;;;;;;;;21.00;52.90;;;;;;5040149;28;20043;-68
2021/05/25 04:59:49;;;;;;;;;;;21.00;52.90;;;;;;5025191;28;19928;-68
2021/05/25 05:02:16;;;;;;;;;;;21.10;55.30;;;;;;5039736;28;19929;-68
2021/05/25 05:04:43;;;;;;;;;;;21.10;55.20;;;;;;5045065;28;19928;-68
2021/05/25 05:07:09;;;;;;;;;;;21.10;54.20;;;;;;5045374;28;19950;-69
2021/05/25 05:09:35;;;;;;;;;;;21.00;54.10;;;;;;5046246;28;20179;-69
2021/05/25 05:12:01;;;;;;;;;;;21.00;54.10;;;;;;5048585;28;20300;-68
2021/05/25 05:14:27;;;;;;;;;;;20.90;54.10;;;;;;5049616;28;19929;-69
2021/05/25 05:16:53;;;;;;;;;;;20.90;54.10;;;;;;5050470;28;19932;-69
2021/05/25 05:19:20;;;;;;;;;;;20.80;54.10;;;;;;5049561;28;19936;-69
2021/05/25 05:21:46;;;;;;;;;;;20.80;54.10;;;;;;5045203;28;19935;-68
2021/05/25 05:24:12;;;;;;;;;;;20.80;54.10;;;;;;5046936;28;19936;-68
2021/05/25 05:26:38;;;;;;;;;;;20.90;53.90;;;;;;5038978;28;19932;-69
2021/05/25 05:29:04;;;;;;;;;;;20.90;53.80;;;;;;5050733;28;19977;-68
2021/05/25 05:31:30;;;;;;;;;;;20.90;53.60;;;;;;5044736;28;19936;-67
2021/05/25 05:33:56;;;;;;;;;;;20.90;53.60;;;;;;5049190;28;20454;-67
2021/05/25 05:36:23;;;;;;;;;;;20.90;53.50;;;;;;5042849;28;19982;-68
2021/05/25 05:38:49;;;;;;;;;;;20.90;53.60;;;;;;5048844;28;19936;-68
2021/05/25 05:41:15;;;;;;;;;;;20.90;53.70;;;;;;5048401;28;19929;-67
2021/05/25 05:43:41;;;;;;;;;;;20.80;53.80;;;;;;5047358;28;19947;-68
2021/05/25 05:46:07;;;;;;;;;;;20.80;54.00;;;;;;5025733;28;20024;-68
2021/05/25 05:48:33;;;;;;;;;;;20.80;54.00;;;;;;5050906;28;20332;-69
2021/05/25 05:50:59;;;;;;;;;;;20.80;53.90;;;;;;5048635;28;19928;-69
2021/05/25 05:53:26;;;;;;;;;;;20.80;53.80;;;;;;5023665;28;19935;-69
2021/05/25 05:55:52;;;;;;;;;;;20.80;53.80;;;;;;5045775;28;19979;-69
2021/05/25 05:58:18;;;;;;;;;;;20.80;53.80;;;;;;5047868;28;19936;-68
2021/05/25 06:00:44;;;;;;;;;;;20.90;53.80;;;;;;5047825;28;19933;-69
2021/05/25 06:03:10;;;;;;;;;;;20.90;53.80;;;;;;5043534;28;20362;-69
2021/05/25 06:05:36;;;;;;;;;;;20.90;53.70;;;;;;5050236;28;20431;-69
2021/05/25 06:08:03;;;;;;;;;;;20.90;53.70;;;;;;5046358;28;19932;-69
2021/05/25 06:10:31;;;;;;;;;;;20.90;53.60;;;;;;5000389;28;20637;-70
2021/05/25 06:12:57;;;;;;;;;;;20.90;53.60;;;;;;5047439;28;19928;-68
2021/05/25 06:15:24;;;;;;;;;;;20.80;53.50;;;;;;5045331;28;19933;-68
2021/05/25 06:17:50;;;;;;;;;;;20.80;53.50;;;;;;5046799;28;20451;-68
2021/05/25 06:20:16;;;;;;;;;;;20.80;53.70;;;;;;5044890;28;19932;-68
2021/05/25 06:22:42;;;;;;;;;;;20.80;53.70;;;;;;5046795;28;19928;-69
2021/05/25 06:25:09;;;;;;;;;;;20.80;53.80;;;;;;5027106;28;19928;-70
2021/05/25 06:27:36;;;;;;;;;;;20.80;53.70;;;;;;5012929;28;19928;-68
2021/05/25 06:30:02;;;;;;;;;;;20.80;54.00;;;;;;5048313;28;20386;-69
2021/05/25 06:32:28;;;;;;;;;;;20.80;53.80;;;;;;5033603;28;19929;-69
2021/05/25 06:34:54;;;;;;;;;;;20.80;53.70;;;;;;5043918;28;19936;-69
2021/05/25 06:37:20;;;;;;;;;;;20.80;53.60;;;;;;5040983;28;19936;-69
2021/05/25 06:39:46;;;;;;;;;;;20.80;53.60;;;;;;5046315;28;19929;-69
2021/05/25 06:42:12;;;;;;;;;;;20.80;53.70;;;;;;5048061;28;20347;-70
2021/05/25 06:44:39;;;;;;;;;;;20.80;53.70;;;;;;5044376;28;19933;-70
2021/05/25 06:47:05;;;;;;;;;;;20.80;53.60;;;;;;5044838;28;19982;-68
2021/05/25 06:49:31;;;;;;;;;;;20.80;53.70;;;;;;5046421;28;20404;-68
2021/05/25 06:51:57;;;;;;;;;;;20.70;53.50;;;;;;5032575;28;19940;-68
2021/05/25 06:54:23;;;;;;;;;;;20.80;53.90;;;;;;5044504;28;19934;-67
2021/05/25 06:56:49;;;;;;;;;;;20.80;53.60;;;;;;5047845;28;19935;-69
2021/05/25 06:59:15;;;;;;;;;;;20.80;53.50;;;;;;5048114;28;20698;-67
2021/05/25 07:01:42;;;;;;;;;;;20.80;53.50;;;;;;5044338;28;20316;-67
2021/05/25 07:04:08;;;;;;;;;;;20.80;53.50;;;;;;5045386;28;20389;-68
2021/05/25 07:06:34;;;;;;;;;;;20.80;53.50;;;;;;5047266;28;19928;-68
2021/05/25 07:09:00;;;;;;;;;;;20.80;53.50;;;;;;5047035;28;19929;-68
2021/05/25 07:11:26;;;;;;;;;;;20.80;53.60;;;;;;5046295;28;20004;-67
2021/05/25 07:13:52;;;;;;;;;;;20.70;53.60;;;;;;5047419;28;19929;-68
2021/05/25 07:16:18;;;;;;;;;;;20.70;53.50;;;;;;5047140;28;19935;-67
2021/05/25 07:18:45;;;;;;;;;;;20.80;53.50;;;;;;5047915;28;19951;-68
2021/05/25 07:21:11;;;;;;;;;;;20.80;53.40;;;;;;5045733;28;19929;-68
2021/05/25 07:23:37;;;;;;;;;;;20.80;53.30;;;;;;5048178;28;19928;-70
2021/05/25 07:26:03;;;;;;;;;;;20.80;53.20;;;;;;5043540;28;19936;-68
2021/05/25 07:28:29;;;;;;;;;;;20.80;53.20;;;;;;5008278;28;20814;-70
2021/05/25 07:30:55;;;;;;;;;;;20.80;53.20;;;;;;5039447;28;19935;-69
2021/05/25 07:33:24;;;;;;;;;;;20.80;53.20;;;;;;5047577;28;19928;-68
2021/05/25 07:35:51;;;;;;;;;;;20.80;53.10;;;;;;5046535;28;19929;-70
2021/05/25 07:38:17;;;;;;;;;;;20.80;53.20;;;;;;5048822;28;20281;-67
2021/05/25 07:40:43;;;;;;;;;;;20.70;53.20;;;;;;5045759;28;19929;-69
2021/05/25 07:43:09;;;;;;;;;;;20.70;53.10;;;;;;5022064;28;20679;-67
2021/05/25 07:45:35;;;;;;;;;;;20.70;53.20;;;;;;5048357;28;19928;-68
2021/05/25 07:48:01;;;;;;;;;;;20.70;53.20;;;;;;5048718;28;19975;-67
2021/05/25 07:50:27;;;;;;;;;;;20.70;53.00;;;;;;5021697;28;19952;-67
2021/05/25 07:52:55;;;;;;;;;;;20.80;53.00;;;;;;5047002;28;20455;-68
2021/05/25 07:55:22;;;;;;;;;;;20.80;52.90;;;;;;5045237;28;19998;-67
2021/05/25 07:57:48;;;;;;;;;;;20.80;52.60;;;;;;5036967;28;20027;-67
2021/05/25 08:00:15;;;;;;;;;;;20.80;52.60;;;;;;5046973;28;19936;-67
2021/05/25 08:02:41;;;;;;;;;;;20.80;52.50;;;;;;5043720;28;19928;-68
2021/05/25 08:05:08;;;;;;;;;;;20.80;52.60;;;;;;5043969;28;19929;-68
2021/05/25 08:07:34;;;;;;;;;;;20.80;52.70;;;;;;5046434;28;20618;-67
2021/05/25 08:10:02;;;;;;;;;;;20.70;52.70;;;;;;5038301;28;19932;-69
2021/05/25 08:12:28;;;;;;;;;;;20.70;52.70;;;;;;5048670;28;20920;-68
2021/05/25 08:14:55;;;;;;;;;;;20.70;52.60;;;;;;5048381;28;19937;-68
2021/05/25 08:17:24;;;;;;;;;;;20.70;52.50;;;;;;5047202;28;19929;-68
2021/05/25 08:19:51;;;;;;;;;;;20.80;52.40;;;;;;5045692;28;20946;-67
2021/05/25 08:22:17;;;;;;;;;;;20.80;52.20;;;;;;5043718;28;19929;-68
2021/05/25 08:24:43;;;;;;;;;;;20.80;52.20;;;;;;5045088;28;19990;-67
2021/05/25 08:27:09;;;;;;;;;;;20.80;52.10;;;;;;5046852;28;20006;-67
2021/05/25 08:29:35;;;;;;;;;;;20.80;52.10;;;;;;5046458;28;20362;-69
2021/05/25 08:32:01;;;;;;;;;;;20.80;52.10;;;;;;5047174;28;21377;-69
2021/05/25 08:34:27;;;;;;;;;;;20.80;52.00;;;;;;5046024;28;21330;-68
2021/05/25 08:36:53;;;;;;;;;;;20.80;52.00;;;;;;5045353;28;20552;-68
2021/05/25 08:39:19;;;;;;;;;;;20.80;52.10;;;;;;5050400;28;19933;-67
2021/05/25 08:41:45;;;;;;;;;;;20.70;52.00;;;;;;5050665;28;19928;-68
2021/05/25 08:44:12;;;;;;;;;;;20.70;52.80;;;;;;5040732;28;19928;-68
2021/05/25 08:46:44;;;;;;;;;;;20.60;52.20;;;;;;5049862;28;19928;-67
2021/05/25 08:49:11;;;;;;;;;;;20.60;52.30;;;;;;5045713;28;19929;-67
2021/05/25 08:51:37;;;;;;;;;;;20.60;52.20;;;;;;5045335;28;19939;-68
2021/05/25 08:54:04;;;;;;;;;;;20.60;52.20;;;;;;5046481;28;19928;-68
2021/05/25 08:56:30;;;;;;;;;;;20.60;52.20;;;;;;5015662;28;19935;-68
2021/05/25 08:58:56;;;;;;;;;;;20.60;52.20;;;;;;5050206;28;19929;-68
2021/05/25 09:01:23;;;;;;;;;;;20.60;52.20;;;;;;5046083;28;19936;-69
2021/05/25 09:03:56;;;;;;;;;;;20.70;52.40;;;;;;5049890;28;19937;-68
2021/05/25 09:06:35;;;;;;;;;;;20.60;52.10;;;;;;5050344;28;19977;-68
2021/05/25 09:09:04;;;;;;;;;;;20.60;52.10;;;;;;5001477;28;19929;-67
2021/05/25 09:11:30;;;;;;;;;;;20.60;52.10;;;;;;5051140;28;19928;-68
2021/05/25 09:14:05;;;;;;;;;;;20.60;52.10;;;;;;5050927;28;19936;-68
2021/05/25 09:16:32;;;;;;;;;;;20.60;52.10;;;;;;5027200;28;20553;-67
2021/05/25 09:18:58;;;;;;;;;;;20.60;52.10;;;;;;5051133;28;19928;-69
2021/05/25 09:21:28;;;;;;;;;;;20.60;52.30;;;;;;5037948;28;20008;-67
2021/05/25 09:23:54;;;;;;;;;;;20.60;52.30;;;;;;5047991;28;19933;-68
2021/05/25 09:26:26;;;;;;;;;;;20.60;52.30;;;;;;5046799;28;19929;-67
2021/05/25 09:28:55;;;;;;;;;;;20.50;52.10;;;;;;5049099;28;19986;-68
2021/05/25 09:31:25;;;;;;;;;;;20.60;52.40;;;;;;5021527;28;19979;-67
2021/05/25 09:34:04;;;;;;;;;;;20.60;52.30;;;;;;5050092;28;19937;-68
2021/05/25 09:36:30;;;;;;;;;;;20.60;52.30;;;;;;5049718;28;20404;-68
2021/05/25 09:39:03;;;;;;;;;;;20.60;52.20;;;;;;5051107;28;19935;-67
2021/05/25 09:41:32;;;;;;;;;;;20.60;52.20;;;;;;5049556;28;21105;-68
2021/05/25 09:43:58;;;;;;;;;;;20.60;52.20;;;;;;5050877;28;20604;-67
2021/05/25 09:46:30;;;;;;;;;;;20.60;52.10;;;;;;5047438;28;19929;-67
2021/05/25 09:48:56;;;;;;;;;;;20.60;52.10;;;;;;5049003;28;19928;-67
2021/05/25 09:51:23;;;;;;;;;;;20.60;52.20;;;;;;5046136;28;20389;-70
2021/05/25 09:53:49;;;;;;;;;;;20.60;52.30;;;;;;5038959;28;19967;-68
2021/05/25 09:56:20;;;;;;;;;;;20.60;52.20;;;;;;5044594;28;20228;-68
2021/05/25 09:58:46;;;;;;;;;;;20.70;52.30;;;;;;5049068;28;19924;-68
2021/05/25 10:01:12;;;;;;;;;;;20.70;52.00;;;;;;5047216;28;19936;-68
2021/05/25 10:03:42;;;;;;;;;;;20.70;51.90;;;;;;5049758;28;19977;-68
2021/05/25 10:06:08;;;;;;;;;;;20.70;51.90;;;;;;5046573;28;19935;-68
2021/05/25 10:08:35;;;;;;;;;;;20.70;51.80;;;;;;5050082;28;19928;-67
2021/05/25 10:11:01;;;;;;;;;;;20.70;51.80;;;;;;5025463;28;20401;-67
2021/05/25 10:13:28;;;;;;;;;;;20.70;51.70;;;;;;5049900;28;19940;-68
2021/05/25 10:15:54;;;;;;;;;;;20.70;51.60;;;;;;5048206;28;20516;-68
2021/05/25 10:21:02;;;;;;;;;;;20.80;51.60;;;;;;5031301;28;20456;-69
2021/05/25 10:23:32;;;;;;;;;;;20.90;51.80;;;;;;5039279;28;19929;-68
2021/05/25 10:25:59;;;;;;;;;;;20.90;51.80;;;;;;5047515;28;19934;-67
2021/05/25 10:28:25;;;;;;;;;;;20.90;51.80;;;;;;5046104;28;19933;-67
2021/05/25 10:30:51;;;;;;;;;;;20.90;51.90;;;;;;5046426;28;19936;-67
2021/05/25 10:33:21;;;;;;;;;;;20.90;52.00;;;;;;5048282;28;19929;-68
2021/05/25 10:35:51;;;;;;;;;;;20.90;52.20;;;;;;5041791;28;19933;-68
2021/05/25 10:38:17;;;;;;;;;;;20.90;52.30;;;;;;5049211;28;19928;-67
2021/05/25 10:40:45;;;;;;;;;;;20.90;52.30;;;;;;5049177;28;19947;-67
2021/05/25 10:43:30;;;;;;;;;;;20.90;52.30;;;;;;5048791;28;20419;-67
2021/05/25 10:46:11;;;;;;;;;;;20.90;52.30;;;;;;5045375;28;19937;-68
2021/05/25 10:48:48;;;;;;;;;;;20.90;52.40;;;;;;5042779;28;19940;-69
2021/05/25 10:51:14;;;;;;;;;;;20.80;53.00;;;;;;5043886;28;20385;-67
2021/05/25 10:53:40;;;;;;;;;;;20.80;52.10;;;;;;5034645;28;19936;-68
2021/05/25 10:56:11;;;;;;;;;;;20.80;52.20;;;;;;5039411;28;19934;-69
2021/05/25 10:58:37;;;;;;;;;;;20.80;52.20;;;;;;5045207;28;19937;-69
2021/05/25 11:01:06;;;;;;;;;;;20.90;52.20;;;;;;5045469;28;19936;-69
2021/05/25 11:03:32;;;;;;;;;;;20.90;52.30;;;;;;5025712;28;19928;-68
2021/05/25 11:05:59;;;;;;;;;;;20.90;52.20;;;;;;5048282;28;19936;-69
2021/05/25 11:08:29;;;;;;;;;;;20.90;52.20;;;;;;5047645;28;19936;-70
2021/05/25 11:11:02;;;;;;;;;;;20.90;52.00;;;;;;5036497;28;19924;-69
2021/05/25 11:13:29;;;;;;;;;;;20.90;52.00;;;;;;5036420;28;19935;-70
2021/05/25 11:16:02;;;;;;;;;;;20.90;52.00;;;;;;5038163;28;19933;-67
2021/05/25 11:18:32;;;;;;;;;;;20.90;52.00;;;;;;5048522;28;19929;-69
2021/05/25 11:21:13;;;;;;;;;;;20.90;52.00;;;;;;5045869;28;20027;-67
2021/05/25 11:23:39;;;;;;;;;;;20.80;51.90;;;;;;5047494;28;19935;-68
2021/05/25 11:26:05;;;;;;;;;;;20.80;52.00;;;;;;5027722;28;19929;-69
2021/05/25 11:28:46;;;;;;;;;;;20.80;52.10;;;;;;5041068;28;19951;-70
2021/05/25 11:31:22;;;;;;;;;;;20.80;52.10;;;;;;5043096;28;19935;-68
2021/05/25 11:33:48;;;;;;;;;;;20.80;52.10;;;;;;5047594;28;19948;-69
2021/05/25 11:36:15;;;;;;;;;;;20.80;52.20;;;;;;5045696;28;20033;-69
2021/05/25 11:38:41;;;;;;;;;;;20.80;52.20;;;;;;5047774;28;19929;-68
2021/05/25 11:41:14;;;;;;;;;;;20.80;52.10;;;;;;5037319;28;20519;-68
2021/05/25 11:43:40;;;;;;;;;;;20.90;52.10;;;;;;5039018;28;19929;-67
2021/05/25 11:46:06;;;;;;;;;;;20.90;52.00;;;;;;5048471;28;20035;-67
2021/05/25 11:48:34;;;;;;;;;;;20.90;52.10;;;;;;5041764;28;19928;-67
2021/05/25 11:51:08;;;;;;;;;;;20.90;52.00;;;;;;5045798;28;19929;-68
2021/05/25 11:53:35;;;;;;;;;;;20.90;52.00;;;;;;5010032;28;20019;-68
2021/05/25 11:56:01;;;;;;;;;;;20.90;52.00;;;;;;5044822;28;20320;-68
2021/05/25 11:58:27;;;;;;;;;;;20.90;51.90;;;;;;5025327;28;19936;-69
2021/05/25 12:00:53;;;;;;;;;;;20.90;51.80;;;;;;5042035;28;19935;-67
2021/05/25 12:03:19;;;;;;;;;;;20.90;51.90;;;;;;5046927;28;19932;-69
2021/05/25 12:05:45;;;;;;;;;;;20.90;51.80;;;;;;5047412;28;19932;-67
2021/05/25 12:08:11;;;;;;;;;;;20.90;51.80;;;;;;5047127;28;19935;-68
2021/05/25 12:10:39;;;;;;;;;;;20.90;51.70;;;;;;5043711;28;19933;-68
2021/05/25 12:13:05;;;;;;;;;;;20.90;51.70;;;;;;5046555;28;19928;-68
2021/05/25 12:15:31;;;;;;;;;;;20.90;51.70;;;;;;5048698;28;19929;-68
2021/05/25 12:17:58;;;;;;;;;;;20.90;51.70;;;;;;5048548;28;20313;-68
2021/05/25 12:20:25;;;;;;;;;;;20.90;51.60;;;;;;5041165;28;20969;-67
2021/05/25 12:22:52;;;;;;;;;;;20.90;51.60;;;;;;5044634;28;19929;-67
2021/05/25 12:25:25;;;;;;;;;;;20.90;51.60;;;;;;5045161;28;19929;-68
2021/05/25 12:27:53;;;;;;;;;;;20.80;51.30;;;;;;5045970;28;19982;-67
2021/05/25 12:30:19;;;;;;;;;;;20.80;51.50;;;;;;5046534;28;20105;-68
2021/05/25 12:32:46;;;;;;;;;;;20.80;51.60;;;;;;5047287;28;21236;-68
2021/05/25 12:35:12;;;;;;;;;;;20.80;52.30;;;;;;5038690;28;19935;-67
2021/05/25 12:37:38;;;;;;;;;;;20.80;51.60;;;;;;5043043;28;19928;-68
2021/05/25 12:40:05;;;;;;;;;;;20.80;51.50;;;;;;5048701;28;20424;-67
2021/05/25 12:42:35;;;;;;;;;;;20.80;51.40;;;;;;5048019;28;20348;-67
2021/05/25 12:45:06;;;;;;;;;;;20.80;51.50;;;;;;5046330;28;19978;-68
2021/05/25 12:47:47;;;;;;;;;;;20.80;51.30;;;;;;5024525;28;19995;-67
2021/05/25 12:50:13;;;;;;;;;;;20.80;51.40;;;;;;5043024;28;19935;-68
2021/05/25 12:52:39;;;;;;;;;;;20.80;51.30;;;;;;5045823;28;19932;-68
2021/05/25 12:55:07;;;;;;;;;;;20.90;51.40;;;;;;5047945;28;19936;-68
2021/05/25 12:57:43;;;;;;;;;;;20.90;51.40;;;;;;5020384;28;21232;-68
2021/05/25 13:00:10;;;;;;;;;;;20.90;51.40;;;;;;5042159;28;20025;-67
2021/05/25 13:02:37;;;;;;;;;;;20.90;51.40;;;;;;5044257;28;19955;-68
2021/05/25 13:05:04;;;;;;;;;;;20.80;51.40;;;;;;5047074;28;19932;-68
2021/05/25 13:07:44;;;;;;;;;;;20.80;51.50;;;;;;5045880;28;19935;-68
2021/05/25 13:10:19;;;;;;;;;;;20.80;51.40;;;;;;5043546;28;19928;-67
2021/05/25 13:12:45;;;;;;;;;;;20.80;51.50;;;;;;5045137;28;19932;-68
2021/05/25 13:15:12;;;;;;;;;;;20.70;51.50;;;;;;5045312;28;19940;-69
2021/05/25 13:17:47;;;;;;;;;;;20.80;51.70;;;;;;5043802;28;19982;-68
2021/05/25 13:20:18;;;;;;;;;;;20.80;51.70;;;;;;5032678;28;19928;-68
2021/05/25 13:22:44;;;;;;;;;;;20.80;51.70;;;;;;5044880;28;19950;-67
2021/05/25 13:25:11;;;;;;;;;;;20.80;51.70;;;;;;5039748;28;20412;-69
2021/05/25 13:27:37;;;;;;;;;;;20.80;51.70;;;;;;5044030;28;19932;-68
2021/05/25 13:30:04;;;;;;;;;;;20.80;51.70;;;;;;5048935;28;20039;-67
2021/05/25 13:32:31;;;;;;;;;;;20.80;51.70;;;;;;5048858;28;19935;-68
2021/05/25 13:34:58;;;;;;;;;;;20.80;51.70;;;;;;5050786;28;20332;-68
2021/05/25 13:37:24;;;;;;;;;;;20.80;51.70;;;;;;5046713;28;20427;-67
2021/05/25 13:39:53;;;;;;;;;;;20.80;51.70;;;;;;5050629;28;19979;-67
2021/05/25 13:42:20;;;;;;;;;;;20.80;51.80;;;;;;5049524;28;19939;-68
2021/05/25 13:44:46;;;;;;;;;;;20.80;51.90;;;;;;5037418;28;19950;-67
2021/05/25 13:47:12;;;;;;;;;;;20.80;51.90;;;;;;5037359;28;20616;-68
2021/05/25 13:49:39;;;;;;;;;;;20.80;51.80;;;;;;5039370;28;19929;-67
2021/05/25 13:52:05;;;;;;;;;;;20.80;51.90;;;;;;5046352;28;19936;-67
2021/05/25 13:54:31;;;;;;;;;;;20.80;51.80;;;;;;5042983;28;19932;-68
2021/05/25 13:56:58;;;;;;;;;;;20.80;51.70;;;;;;5045222;28;20451;-67
2021/05/25 13:59:32;;;;;;;;;;;20.80;51.70;;;;;;5039876;28;20045;-68
2021/05/25 14:01:58;;;;;;;;;;;20.80;51.80;;;;;;5042552;28;20586;-68
2021/05/25 14:04:24;;;;;;;;;;;20.80;51.90;;;;;;5040677;28;19928;-69
2021/05/25 14:06:51;;;;;;;;;;;20.80;51.90;;;;;;5044885;28;19929;-68
2021/05/25 14:09:17;;;;;;;;;;;20.80;52.00;;;;;;5045411;28;19932;-67
2021/05/25 14:11:43;;;;;;;;;;;20.80;52.00;;;;;;5046594;28;19933;-68
2021/05/25 14:14:10;;;;;;;;;;;20.70;51.90;;;;;;5042450;28;19932;-69
2021/05/25 14:16:36;;;;;;;;;;;20.70;52.00;;;;;;5047059;28;19939;-67
2021/05/25 14:19:02;;;;;;;;;;;20.70;52.10;;;;;;5047665;28;19944;-67